createdAt,value
2023-03-11T00:00:30.860Z,99398.00
2023-03-11T00:02:59.450Z,99410.00
2023-03-11T00:05:32.085Z,99410.00
2023-03-11T00:07:59.049Z,99421.00
2023-03-11T00:10:31.672Z,99415.00
2023-03-11T00:13:00.085Z,99418.00
2023-03-11T00:15:28.427Z,99426.00
2023-03-11T00:17:55.589Z,99420.00
2023-03-11T00:20:34.146Z,99427.00
2023-03-11T00:23:01.014Z,99431.00
2023-03-11T00:25:30.197Z,99441.00
2023-03-11T00:27:57.186Z,99444.00
2023-03-11T00:30:24.727Z,99441.00
2023-03-11T00:32:54.251Z,99444.00
2023-03-11T00:35:24.179Z,99449.00
2023-03-11T00:37:54.455Z,99447.00
2023-03-11T00:40:22.620Z,99449.00
2023-03-11T00:42:49.408Z,99444.00
2023-03-11T00:45:16.555Z,99456.00
2023-03-11T00:47:43.680Z,99463.00
2023-03-11T00:50:14.719Z,99464.00
2023-03-11T00:52:41.509Z,99468.00
2023-03-11T00:55:08.733Z,99461.00
2023-03-11T00:57:35.509Z,99462.00
2023-03-11T01:00:02.315Z,99472.00
2023-03-11T01:02:29.105Z,99468.00
2023-03-11T01:04:56.050Z,99479.00
2023-03-11T01:07:23.052Z,99482.00
2023-03-11T01:09:49.912Z,99484.00
2023-03-11T01:12:16.818Z,99480.00
2023-03-11T01:14:43.916Z,99488.00
2023-03-11T01:17:10.911Z,99489.00
2023-03-11T01:19:37.798Z,99491.00
2023-03-11T01:22:04.627Z,99498.00
2023-03-11T01:24:31.441Z,99509.00
2023-03-11T01:26:58.364Z,99516.00
2023-03-11T01:29:25.192Z,99513.00
2023-03-11T01:31:52.169Z,99522.00
2023-03-11T01:34:19.092Z,99522.00
2023-03-11T01:36:45.992Z,99530.00
2023-03-11T01:39:12.832Z,99515.00
2023-03-11T01:41:39.861Z,99520.00
2023-03-11T01:44:07.022Z,99528.00
2023-03-11T01:46:59.690Z,99538.00
2023-03-11T01:49:26.759Z,99538.00
2023-03-11T01:52:08.006Z,99543.00
2023-03-11T01:54:40.215Z,99549.00
2023-03-11T01:57:10.264Z,99568.00
2023-03-11T01:59:42.179Z,99557.00
2023-03-11T02:02:14.979Z,99557.00
2023-03-11T02:04:42.035Z,99563.00
2023-03-11T02:07:09.996Z,99574.00
2023-03-11T02:09:36.883Z,99564.00
2023-03-11T02:12:05.869Z,99584.00
2023-03-11T02:14:33.101Z,99580.00
2023-03-11T02:17:00.623Z,99593.00
2023-03-11T02:19:49.823Z,99597.00
2023-03-11T02:22:16.764Z,99605.00
2023-03-11T02:25:11.558Z,99605.00
2023-03-11T02:27:41.483Z,99595.00
2023-03-11T02:30:10.482Z,99598.00
2023-03-11T02:32:37.668Z,99615.00
2023-03-11T02:35:05.921Z,99616.00
2023-03-11T02:37:32.790Z,99611.00
2023-03-11T02:40:20.556Z,99610.00
2023-03-11T02:42:47.419Z,99609.00
2023-03-11T02:45:16.776Z,99618.00
2023-03-11T02:47:43.748Z,99612.00
2023-03-11T02:50:13.640Z,99617.00
2023-03-11T02:52:41.022Z,99613.00
2023-03-11T02:55:10.067Z,99616.00
2023-03-11T02:57:36.877Z,99619.00
2023-03-11T03:00:10.952Z,99635.00
2023-03-11T03:02:37.846Z,99648.00
2023-03-11T03:05:06.054Z,99659.00
2023-03-11T03:07:33.415Z,99651.00
2023-03-11T03:10:00.747Z,99663.00
2023-03-11T03:12:27.590Z,99668.00
2023-03-11T03:14:54.659Z,99679.00
2023-03-11T03:17:21.483Z,99680.00
2023-03-11T03:19:48.462Z,99693.00
2023-03-11T03:22:15.405Z,99690.00
2023-03-11T03:24:42.247Z,99705.00
2023-03-11T03:27:09.042Z,99707.00
2023-03-11T03:29:36.050Z,99724.00
2023-03-11T03:32:03.061Z,99722.00
2023-03-11T03:34:30.088Z,99726.00
2023-03-11T03:36:56.968Z,99742.00
2023-03-11T03:39:23.982Z,99735.00
2023-03-11T03:41:50.775Z,99734.00
2023-03-11T03:44:17.593Z,99741.00
2023-03-11T03:46:44.426Z,99750.00
2023-03-11T03:49:11.636Z,99737.00
2023-03-11T03:51:38.488Z,99751.00
2023-03-11T03:54:05.841Z,99742.00
2023-03-11T03:56:32.757Z,99753.00
2023-03-11T03:58:59.508Z,99759.00
2023-03-11T04:01:26.326Z,99768.00
2023-03-11T04:03:53.179Z,99768.00
2023-03-11T04:06:26.143Z,99775.00
2023-03-11T04:08:53.618Z,99768.00
2023-03-11T04:11:20.803Z,99779.00
2023-03-11T04:13:47.750Z,99772.00
2023-03-11T04:16:24.479Z,99764.00
2023-03-11T04:18:51.260Z,99776.00
2023-03-11T04:21:18.079Z,99774.00
2023-03-11T04:23:44.915Z,99777.00
2023-03-11T04:26:17.054Z,99780.00
2023-03-11T04:28:43.804Z,99775.00
2023-03-11T04:31:11.624Z,99785.00
2023-03-11T04:33:38.356Z,99771.00
2023-03-11T04:36:06.758Z,99787.00
2023-03-11T04:38:33.533Z,99786.00
2023-03-11T04:41:07.342Z,99788.00
2023-03-11T04:43:34.296Z,99796.00
2023-03-11T04:46:01.152Z,99794.00
2023-03-11T04:48:28.258Z,99800.00
2023-03-11T04:50:55.543Z,99792.00
2023-03-11T04:53:22.754Z,99820.00
2023-03-11T04:55:50.590Z,99824.00
2023-03-11T04:58:17.290Z,99819.00
2023-03-11T05:00:44.051Z,99822.00
2023-03-11T05:03:10.915Z,99825.00
2023-03-11T05:05:37.770Z,99830.00
2023-03-11T05:08:04.727Z,99836.00
2023-03-11T05:10:32.110Z,99829.00
2023-03-11T05:12:59.074Z,99844.00
2023-03-11T05:15:25.906Z,99827.00
2023-03-11T05:17:52.632Z,99841.00
2023-03-11T05:20:19.383Z,99845.00
2023-03-11T05:22:46.159Z,99843.00
2023-03-11T05:25:12.958Z,99847.00
2023-03-11T05:27:39.801Z,99847.00
2023-03-11T05:30:10.233Z,99860.00
2023-03-11T05:32:37.043Z,99857.00
2023-03-11T05:35:04.013Z,99870.00
2023-03-11T05:37:33.732Z,99878.00
2023-03-11T05:40:00.439Z,99894.00
2023-03-11T05:42:27.185Z,99886.00
2023-03-11T05:44:53.915Z,99884.00
2023-03-11T05:47:20.630Z,99882.00
2023-03-11T05:49:48.686Z,99890.00
2023-03-11T05:52:15.945Z,99898.00
2023-03-11T05:54:42.792Z,99893.00
2023-03-11T05:57:09.537Z,99910.00
2023-03-11T05:59:37.655Z,99910.00
2023-03-11T06:02:04.525Z,99916.00
2023-03-11T06:04:31.758Z,99930.00
2023-03-11T06:06:58.594Z,99931.00
2023-03-11T06:09:25.531Z,99936.00
2023-03-11T06:11:52.267Z,99934.00
2023-03-11T06:14:19.067Z,99940.00
2023-03-11T06:16:45.832Z,99949.00
2023-03-11T06:19:12.763Z,99945.00
2023-03-11T06:21:39.644Z,99956.00
2023-03-11T06:24:07.255Z,99961.00
2023-03-11T06:26:34.044Z,99945.00
2023-03-11T06:29:00.788Z,99968.00
2023-03-11T06:31:28.969Z,99958.00
2023-03-11T06:33:56.079Z,99973.00
2023-03-11T06:36:23.655Z,99983.00
2023-03-11T06:38:54.393Z,99968.00
2023-03-11T06:41:21.425Z,99966.00
2023-03-11T06:43:48.473Z,99973.00
2023-03-11T06:46:17.842Z,99975.00
2023-03-11T06:48:45.858Z,99983.00
2023-03-11T06:51:12.944Z,99998.00
2023-03-11T06:53:40.163Z,99990.00
2023-03-11T06:56:09.160Z,100002.00
2023-03-11T06:58:37.069Z,100001.00
2023-03-11T07:01:07.612Z,100010.00
2023-03-11T07:03:34.627Z,100014.00
2023-03-11T07:06:01.576Z,100010.00
2023-03-11T07:08:28.737Z,100014.00
2023-03-11T07:11:07.172Z,100028.00
2023-03-11T07:13:34.178Z,100030.00
2023-03-11T07:16:01.995Z,100042.00
2023-03-11T07:18:28.794Z,100038.00
2023-03-11T07:20:55.551Z,100038.00
2023-03-11T07:23:22.318Z,100036.00
2023-03-11T07:25:49.229Z,100051.00
2023-03-11T07:28:15.976Z,100059.00
2023-03-11T07:30:44.439Z,100063.00
2023-03-11T07:33:12.754Z,100066.00
2023-03-11T07:35:39.613Z,100069.00
2023-03-11T07:38:06.449Z,100098.00
2023-03-11T07:40:33.189Z,100096.00
2023-03-11T07:42:59.969Z,100103.00
2023-03-11T07:45:26.697Z,100112.00
2023-03-11T07:47:53.424Z,100108.00
2023-03-11T07:50:22.306Z,100135.00
2023-03-11T07:52:49.070Z,100133.00
2023-03-11T07:55:15.941Z,100128.00
2023-03-11T07:57:42.853Z,100141.00
2023-03-11T08:00:10.943Z,100152.00
2023-03-11T08:02:37.761Z,100152.00
2023-03-11T08:05:04.744Z,100163.00
2023-03-11T08:07:32.482Z,100176.00
2023-03-11T08:09:59.262Z,100169.00
2023-03-11T08:12:25.984Z,100185.00
2023-03-11T08:14:52.715Z,100201.00
2023-03-11T08:17:19.461Z,100218.00
2023-03-11T08:19:46.181Z,100223.00
2023-03-11T08:22:12.914Z,100241.00
2023-03-11T08:24:39.729Z,100245.00
2023-03-11T08:27:06.512Z,100249.00
2023-03-11T08:29:33.485Z,100259.00
2023-03-11T08:32:00.293Z,100260.00
2023-03-11T08:34:27.638Z,100262.00
2023-03-11T08:36:54.599Z,100273.00
2023-03-11T08:39:21.357Z,100281.00
2023-03-11T08:41:48.076Z,100281.00
2023-03-11T08:44:14.838Z,100311.00
2023-03-11T08:46:41.726Z,100312.00
2023-03-11T08:49:08.487Z,100314.00
2023-03-11T08:51:36.042Z,100338.00
2023-03-11T08:54:03.596Z,100326.00
2023-03-11T08:56:30.344Z,100312.00
2023-03-11T08:58:57.266Z,100322.00
2023-03-11T09:01:24.086Z,100325.00
2023-03-11T09:03:50.877Z,100343.00
2023-03-11T09:06:18.489Z,100335.00
2023-03-11T09:08:45.777Z,100366.00
2023-03-11T09:11:13.555Z,100355.00
2023-03-11T09:13:41.568Z,100373.00
2023-03-11T09:16:12.366Z,100373.00
2023-03-11T09:18:39.160Z,100382.00
2023-03-11T09:21:05.952Z,100394.00
2023-03-11T09:23:32.732Z,100360.00
2023-03-11T09:25:59.442Z,100389.00
2023-03-11T09:28:26.215Z,100380.00
2023-03-11T09:30:53.019Z,100397.00
2023-03-11T09:33:19.767Z,100398.00
2023-03-11T09:38:54.988Z,100419.00
2023-03-11T09:45:00.904Z,100402.00
2023-03-11T09:47:52.048Z,100423.00
2023-03-11T09:50:31.719Z,100402.00
2023-03-11T09:53:01.364Z,100404.00
2023-03-11T09:55:34.223Z,100412.00
2023-03-11T09:58:08.689Z,100417.00
2023-03-11T10:01:11.133Z,100416.00
2023-03-11T10:04:31.109Z,100421.00
2023-03-11T10:06:59.546Z,100418.00
2023-03-11T10:09:48.411Z,100414.00
2023-03-11T10:12:40.034Z,100417.00
2023-03-11T10:15:15.693Z,100428.00
2023-03-11T10:17:51.630Z,100433.00
2023-03-11T10:20:30.480Z,100411.00
2023-03-11T10:23:21.728Z,100419.00
2023-03-11T10:26:10.254Z,100439.00
2023-03-11T10:28:42.564Z,100426.00
2023-03-11T10:31:43.931Z,100440.00
2023-03-11T10:34:33.184Z,100436.00
2023-03-11T10:37:21.180Z,100434.00
2023-03-11T10:39:51.349Z,100429.00
2023-03-11T10:42:22.361Z,100432.00
2023-03-11T10:44:50.556Z,100424.00
2023-03-11T10:47:21.188Z,100434.00
2023-03-11T10:49:48.033Z,100437.00
2023-03-11T10:52:15.027Z,100426.00
2023-03-11T10:54:46.370Z,100428.00
2023-03-11T10:57:19.253Z,100435.00
2023-03-11T10:59:50.941Z,100435.00
2023-03-11T11:02:29.393Z,100414.00
2023-03-11T11:05:24.054Z,100451.00
2023-03-11T11:08:01.697Z,100440.00
2023-03-11T11:10:29.171Z,100453.00
2023-03-11T11:13:01.988Z,100466.00
2023-03-11T11:15:31.100Z,100450.00
2023-03-11T11:18:22.466Z,100437.00
2023-03-11T11:20:56.783Z,100457.00
2023-03-11T11:23:36.004Z,100441.00
2023-03-11T11:26:08.559Z,100437.00
2023-03-11T11:28:38.536Z,100447.00
2023-03-11T11:31:21.142Z,100460.00
2023-03-11T11:33:59.477Z,100468.00
2023-03-11T11:36:35.055Z,100450.00
2023-03-11T11:39:05.035Z,100447.00
2023-03-11T11:41:33.601Z,100417.00
2023-03-11T11:44:05.605Z,100427.00
2023-03-11T11:46:43.357Z,100411.00
2023-03-11T11:49:24.202Z,100398.00
2023-03-11T11:52:06.209Z,100403.00
2023-03-11T11:55:17.097Z,100400.00
2023-03-11T11:57:44.012Z,100403.00
2023-03-11T12:00:37.122Z,100385.00
2023-03-11T12:03:18.499Z,100365.00
2023-03-11T12:06:00.243Z,100349.00
2023-03-11T12:08:38.908Z,100374.00
2023-03-11T12:11:16.418Z,100346.00
2023-03-11T12:14:09.374Z,100358.00
2023-03-11T12:16:47.659Z,100347.00
2023-03-11T12:19:26.222Z,100343.00
2023-03-11T12:22:21.030Z,100355.00
2023-03-11T12:25:21.933Z,100346.00
2023-03-11T12:28:12.999Z,100355.00
2023-03-11T12:30:45.944Z,100341.00
2023-03-11T12:33:34.125Z,100357.00
2023-03-11T12:36:01.929Z,100337.00
2023-03-11T12:38:35.605Z,100348.00
2023-03-11T12:41:14.614Z,100339.00
2023-03-11T12:43:41.255Z,100377.00
2023-03-11T12:46:09.761Z,100368.00
2023-03-11T12:48:49.666Z,100384.00
2023-03-11T12:51:34.155Z,100357.00
2023-03-11T12:54:21.543Z,100346.00
2023-03-11T12:57:00.143Z,100360.00
2023-03-11T12:59:55.994Z,100340.00
2023-03-11T13:02:48.523Z,100351.00
2023-03-11T13:05:18.324Z,100381.00
2023-03-11T13:07:54.092Z,100377.00
2023-03-11T13:10:38.225Z,100364.00
2023-03-11T13:13:29.925Z,100344.00
2023-03-11T13:15:57.504Z,100343.00
2023-03-11T13:18:32.858Z,100335.00
2023-03-11T13:21:04.264Z,100342.00
2023-03-11T13:23:37.010Z,100339.00
2023-03-11T13:26:18.879Z,100321.00
2023-03-11T13:28:57.081Z,100313.00
2023-03-11T13:31:42.243Z,100324.00
2023-03-11T13:34:16.542Z,100342.00
2023-03-11T13:36:55.139Z,100356.00
2023-03-11T13:39:51.128Z,100351.00
2023-03-11T13:42:29.489Z,100362.00
2023-03-11T13:44:57.272Z,100335.00
2023-03-11T13:47:25.012Z,100315.00
2023-03-11T13:50:14.509Z,100345.00
2023-03-11T13:52:48.983Z,100337.00
2023-03-11T13:55:25.474Z,100326.00
2023-03-11T13:57:54.359Z,100324.00
2023-03-11T14:00:28.523Z,100311.00
2023-03-11T14:02:57.952Z,100309.00
2023-03-11T14:05:32.629Z,100302.00
2023-03-11T14:08:30.202Z,100314.00
2023-03-11T14:10:58.977Z,100313.00
2023-03-11T14:13:30.758Z,100315.00
2023-03-11T14:16:05.672Z,100309.00
2023-03-11T14:18:48.424Z,100266.00
2023-03-11T14:21:20.117Z,100273.00
2023-03-11T14:23:49.225Z,100242.00
2023-03-11T14:26:31.664Z,100226.00
2023-03-11T14:29:00.595Z,100217.00
2023-03-11T14:31:43.927Z,100223.00
2023-03-11T14:34:10.855Z,100215.00
2023-03-11T14:36:44.965Z,100235.00
2023-03-11T14:39:32.988Z,100247.00
2023-03-11T14:42:02.326Z,100218.00
2023-03-11T14:44:29.719Z,100200.00
2023-03-11T14:47:05.587Z,100201.00
2023-03-11T14:49:32.485Z,100213.00
2023-03-11T14:52:02.731Z,100229.00
2023-03-11T14:54:32.536Z,100224.00
2023-03-11T14:57:11.442Z,100209.00
2023-03-11T14:59:38.592Z,100208.00
2023-03-11T15:02:18.024Z,100216.00
2023-03-11T15:04:44.998Z,100209.00
2023-03-11T15:07:12.031Z,100206.00
2023-03-11T15:09:40.261Z,100220.00
2023-03-11T15:12:07.354Z,100225.00
2023-03-11T15:14:36.228Z,100227.00
2023-03-11T15:17:41.296Z,100236.00
2023-03-11T15:20:43.157Z,100227.00
2023-03-11T15:23:21.849Z,100223.00
2023-03-11T15:25:50.063Z,100227.00
2023-03-11T15:28:33.389Z,100208.00
2023-03-11T15:31:15.552Z,100235.00
2023-03-11T15:33:42.472Z,100210.00
2023-03-11T15:36:30.820Z,100220.00
2023-03-11T15:39:32.959Z,100212.00
2023-03-11T15:42:01.966Z,100213.00
2023-03-11T15:44:33.258Z,100222.00
2023-03-11T15:47:00.834Z,100232.00
2023-03-11T15:49:28.713Z,100218.00
2023-03-11T15:51:59.969Z,100196.00
2023-03-11T15:54:27.219Z,100175.00
2023-03-11T15:56:55.272Z,100178.00
2023-03-11T15:59:22.200Z,100165.00
2023-03-11T16:01:49.262Z,100174.00
2023-03-11T16:04:18.457Z,100160.00
2023-03-11T16:06:47.939Z,100150.00
2023-03-11T16:09:16.654Z,100164.00
2023-03-11T16:11:44.086Z,100185.00
2023-03-11T16:14:19.982Z,100168.00
2023-03-11T16:16:47.469Z,100222.00
2023-03-11T16:19:14.252Z,100223.00
2023-03-11T16:21:46.838Z,100225.00
2023-03-11T16:24:18.951Z,100245.00
2023-03-11T16:26:45.868Z,100247.00
2023-03-11T16:29:19.403Z,100227.00
2023-03-11T16:31:47.044Z,100217.00
2023-03-11T16:34:13.814Z,100213.00
2023-03-11T16:36:40.705Z,100217.00
2023-03-11T16:39:07.497Z,100207.00
2023-03-11T16:41:42.654Z,100210.00
2023-03-11T16:44:09.940Z,100196.00
2023-03-11T16:46:36.952Z,100214.00
2023-03-11T16:49:04.000Z,100212.00
2023-03-11T16:51:31.367Z,100228.00
2023-03-11T16:53:58.226Z,100227.00
2023-03-11T16:56:25.105Z,100244.00
2023-03-11T16:58:51.939Z,100256.00
2023-03-11T17:01:19.203Z,100234.00
2023-03-11T17:03:48.686Z,100236.00
2023-03-11T17:06:16.999Z,100233.00
2023-03-11T17:08:48.902Z,100218.00
2023-03-11T17:11:21.242Z,100223.00
2023-03-11T17:13:48.195Z,100222.00
2023-03-11T17:16:15.023Z,100214.00
2023-03-11T17:18:41.955Z,100213.00
2023-03-11T17:21:11.435Z,100207.00
2023-03-11T17:23:38.292Z,100209.00
2023-03-11T17:26:16.257Z,100218.00
2023-03-11T17:28:43.514Z,100214.00
2023-03-11T17:31:14.904Z,100215.00
2023-03-11T17:33:42.382Z,100218.00
2023-03-11T17:36:11.627Z,100214.00
2023-03-11T17:38:38.365Z,100205.00
2023-03-11T17:41:09.585Z,100225.00
2023-03-11T17:43:36.407Z,100219.00
2023-03-11T17:46:07.438Z,100224.00
2023-03-11T17:48:34.346Z,100234.00
2023-03-11T17:51:15.394Z,100241.00
2023-03-11T17:53:45.816Z,100238.00
2023-03-11T17:56:14.283Z,100236.00
2023-03-11T17:58:41.577Z,100243.00
2023-03-11T18:01:20.650Z,100234.00
2023-03-11T18:03:47.557Z,100255.00
2023-03-11T18:06:14.868Z,100250.00
2023-03-11T18:08:41.773Z,100255.00
2023-03-11T18:11:11.821Z,100258.00
2023-03-11T18:13:39.239Z,100265.00
2023-03-11T18:16:11.813Z,100269.00
2023-03-11T18:18:38.998Z,100271.00
2023-03-11T18:21:26.733Z,100276.00
2023-03-11T18:23:57.926Z,100273.00
2023-03-11T18:26:25.735Z,100289.00
2023-03-11T18:28:57.117Z,100284.00
2023-03-11T18:31:25.107Z,100269.00
2023-03-11T18:33:57.558Z,100278.00
2023-03-11T18:36:29.672Z,100280.00
2023-03-11T18:38:57.840Z,100279.00
2023-03-11T18:41:25.569Z,100279.00
2023-03-11T18:43:53.666Z,100278.00
2023-03-11T18:46:20.630Z,100289.00
2023-03-11T18:48:49.421Z,100279.00
2023-03-11T18:51:16.221Z,100288.00
2023-03-11T18:53:43.142Z,100280.00
2023-03-11T18:56:14.879Z,100294.00
2023-03-11T18:58:41.885Z,100290.00
2023-03-11T19:01:12.372Z,100301.00
2023-03-11T19:03:42.357Z,100304.00
2023-03-11T19:06:10.571Z,100301.00
2023-03-11T19:08:37.411Z,100300.00
2023-03-11T19:11:08.259Z,100310.00
2023-03-11T19:13:46.157Z,100314.00
2023-03-11T19:16:19.413Z,100319.00
2023-03-11T19:18:46.621Z,100317.00
2023-03-11T19:21:14.713Z,100320.00
2023-03-11T19:23:41.794Z,100321.00
2023-03-11T19:26:08.766Z,100326.00
2023-03-11T19:28:36.056Z,100314.00
2023-03-11T19:31:03.589Z,100335.00
2023-03-11T19:33:30.804Z,100325.00
2023-03-11T19:35:59.718Z,100339.00
2023-03-11T19:38:27.301Z,100340.00
2023-03-11T19:41:14.786Z,100355.00
2023-03-11T19:43:42.136Z,100353.00
2023-03-11T19:46:10.659Z,100347.00
2023-03-11T19:48:37.484Z,100352.00
2023-03-11T19:51:05.831Z,100355.00
2023-03-11T19:53:33.826Z,100367.00
2023-03-11T19:56:01.560Z,100375.00
2023-03-11T19:58:30.496Z,100374.00
2023-03-11T20:00:58.642Z,100370.00
2023-03-11T20:03:25.973Z,100376.00
2023-03-11T20:05:54.684Z,100371.00
2023-03-11T20:08:22.260Z,100376.00
2023-03-11T20:10:50.554Z,100369.00
2023-03-11T20:13:20.069Z,100381.00
2023-03-11T20:15:47.249Z,100374.00
2023-03-11T20:18:14.133Z,100370.00
2023-03-11T20:20:43.139Z,100370.00
2023-03-11T20:23:11.078Z,100384.00
2023-03-11T20:25:39.447Z,100381.00
2023-03-11T20:28:06.442Z,100382.00
2023-03-11T20:30:33.255Z,100364.00
2023-03-11T20:33:00.231Z,100363.00
2023-03-11T20:35:27.095Z,100371.00
2023-03-11T20:37:53.901Z,100373.00
2023-03-11T20:40:20.956Z,100369.00
2023-03-11T20:42:47.870Z,100380.00
2023-03-11T20:45:16.326Z,100393.00
2023-03-11T20:47:44.760Z,100397.00
2023-03-11T20:50:13.693Z,100397.00
2023-03-11T20:52:40.594Z,100394.00
2023-03-11T20:55:08.548Z,100410.00
2023-03-11T20:57:36.361Z,100390.00
2023-03-11T21:00:08.167Z,100410.00
2023-03-11T21:02:35.209Z,100415.00
2023-03-11T21:05:02.961Z,100421.00
2023-03-11T21:07:29.836Z,100426.00
2023-03-11T21:09:57.887Z,100415.00
2023-03-11T21:12:25.649Z,100414.00
2023-03-11T21:14:52.419Z,100417.00
2023-03-11T21:17:19.268Z,100423.00
2023-03-11T21:19:46.397Z,100412.00
2023-03-11T21:22:13.233Z,100416.00
2023-03-11T21:24:40.132Z,100406.00
2023-03-11T21:27:06.985Z,100417.00
2023-03-11T21:29:33.815Z,100409.00
2023-03-11T21:32:00.714Z,100421.00
2023-03-11T21:34:27.535Z,100422.00
2023-03-11T21:36:54.518Z,100419.00
2023-03-11T21:39:21.810Z,100417.00
2023-03-11T21:41:48.801Z,100425.00
2023-03-11T21:44:15.608Z,100411.00
2023-03-11T21:46:42.588Z,100413.00
2023-03-11T21:49:09.438Z,100428.00
2023-03-11T21:51:36.289Z,100427.00
2023-03-11T21:54:05.330Z,100421.00
2023-03-11T21:56:32.171Z,100426.00
2023-03-11T21:58:59.065Z,100431.00
2023-03-11T22:01:25.940Z,100436.00
2023-03-11T22:03:53.054Z,100433.00
2023-03-11T22:06:19.883Z,100440.00
2023-03-11T22:08:46.601Z,100437.00
2023-03-11T22:11:17.693Z,100423.00
2023-03-11T22:13:49.237Z,100449.00
2023-03-11T22:16:16.341Z,100451.00
2023-03-11T22:18:43.727Z,100460.00
2023-03-11T22:21:11.083Z,100438.00
2023-03-11T22:23:38.129Z,100449.00
2023-03-11T22:26:04.875Z,100457.00
2023-03-11T22:28:31.642Z,100458.00
2023-03-11T22:30:58.412Z,100461.00
2023-03-11T22:33:25.222Z,100453.00
2023-03-11T22:35:56.832Z,100462.00
2023-03-11T22:38:23.794Z,100469.00
2023-03-11T22:40:50.626Z,100466.00
2023-03-11T22:43:17.383Z,100472.00
2023-03-11T22:45:45.319Z,100466.00
2023-03-11T22:48:12.038Z,100472.00
2023-03-11T22:50:44.316Z,100471.00
2023-03-11T22:53:12.517Z,100477.00
2023-03-11T22:55:43.307Z,100465.00
2023-03-11T22:58:10.906Z,100486.00
2023-03-11T23:00:37.734Z,100481.00
2023-03-11T23:03:04.697Z,100484.00
2023-03-11T23:05:31.484Z,100488.00
2023-03-11T23:07:58.361Z,100481.00
2023-03-11T23:10:25.110Z,100481.00
2023-03-11T23:12:51.910Z,100486.00
2023-03-11T23:15:19.304Z,100479.00
2023-03-11T23:17:46.066Z,100485.00
2023-03-11T23:34:41.184Z,100513.00
2023-03-11T23:37:08.018Z,100512.00
2023-03-11T23:39:34.942Z,100490.00
2023-03-11T23:42:04.920Z,100499.00
2023-03-11T23:44:35.960Z,100507.00
2023-03-11T23:47:02.692Z,100506.00
2023-03-11T23:49:29.484Z,100500.00
2023-03-11T23:51:56.242Z,100506.00
2023-03-11T23:54:22.964Z,100511.00
2023-03-11T23:56:49.739Z,100518.00
2023-03-11T23:59:16.466Z,100521.00
